Main page
Satellite images 10-day forecastsClimateMarine weather Cyclones Lightning AirportsFAQ Newsletter About
Weather : Europe Africa North America South America Asia Australia-Oceania Others
Languages Contact

Munich, Germany

Munich Airport

latitude: 48-21N, longitude: 011-47E, elevation: 453 m


METAR: EDDM 222150Z 27004KT CAVOK 10/08 Q1022 NOSIG
TAF: EDDM 221700Z 2218/2324 05005KT CAVOK BECMG 2218/2220 VRB03KT TEMPO 2314/2324 RA

Time: 00:07 (22:07 UTC)

Current weather observation

The report was made 17 minutes ago, at 21:50 UTC
Wind 4 kt from the West
Temperature 10°C
Humidity 87%
Pressure 1022 hPa
Visibility 10 km or more
no clouds below 1500 m and no cumulonimbus

Change units

Forecast

The report was made 5 hours and 7 minutes ago, at 17:00 UTC
Forecast valid from 22 at 18 UTC to 23 at 24 UTC
Wind 5 kt from the Northeast
Visibility 10 km or more
no clouds below 1500 m and no cumulonimbus
Becoming
from 22 at 18 UTC to 22 at 20 UTC
Wind 3 kt from variable directions
Temporary
from 23 at 14 UTC to 23 at 24 UTC
rain
The information on this site is subject to a disclaimer
Weather : Europe Africa North America South America Asia Australia-Oceania Others
Satellite images 10-day forecastsClimateMarine weather Cyclones Lightning AirportsFAQ Languages Contact Newsletter About